createdAt,value
2022-12-18T00:00:57.602Z,49.33
2022-12-18T00:05:09.323Z,39.27
2022-12-18T00:09:21.315Z,46.93
2022-12-18T00:13:36.657Z,46.97
2022-12-18T00:17:48.457Z,41.57
2022-12-18T00:22:00.096Z,37.43
2022-12-18T00:26:18.088Z,36.03
2022-12-18T00:30:29.960Z,39.93
2022-12-18T00:34:41.586Z,42.33
2022-12-18T00:38:55.750Z,36.73
2022-12-18T00:43:07.352Z,40.33
2022-12-18T00:47:23.160Z,35.70
2022-12-18T00:51:34.887Z,35.37
2022-12-18T00:55:46.831Z,37.67
2022-12-18T00:59:58.659Z,34.53
2022-12-18T01:04:10.359Z,34.03
2022-12-18T01:08:22.766Z,30.77
2022-12-18T01:12:35.038Z,33.53
2022-12-18T01:16:46.716Z,33.63
2022-12-18T01:20:58.524Z,33.53
2022-12-18T01:25:10.296Z,34.93
2022-12-18T01:29:21.882Z,30.57
2022-12-18T01:33:33.472Z,32.03
2022-12-18T01:37:45.009Z,34.27
2022-12-18T01:42:02.635Z,30.90
2022-12-18T01:46:18.762Z,30.70
2022-12-18T01:50:40.929Z,31.87
2022-12-18T01:54:53.392Z,28.10
2022-12-18T01:59:10.202Z,28.03
2022-12-18T02:03:22.042Z,30.07
2022-12-18T02:08:24.399Z,34.30
2022-12-18T02:13:02.905Z,29.03
2022-12-18T02:17:24.260Z,24.90
2022-12-18T02:21:58.357Z,28.60
2022-12-18T02:26:35.652Z,22.77
2022-12-18T02:30:50.146Z,24.60
2022-12-18T02:35:05.495Z,29.60
2022-12-18T02:39:21.826Z,27.40
2022-12-18T02:43:48.635Z,31.07
2022-12-18T02:48:03.572Z,25.13
2022-12-18T02:52:26.943Z,29.07
2022-12-18T02:56:46.944Z,26.53
2022-12-18T03:01:12.578Z,23.80
2022-12-18T03:05:39.787Z,23.47
2022-12-18T03:09:55.085Z,26.20
2022-12-18T03:14:08.562Z,22.57
2022-12-18T03:18:26.365Z,24.63
2022-12-18T03:22:40.044Z,25.03
2022-12-18T03:26:55.279Z,20.43
2022-12-18T03:31:10.789Z,24.93
2022-12-18T03:35:27.354Z,21.20
2022-12-18T03:39:39.456Z,24.80
2022-12-18T03:44:14.888Z,21.97
2022-12-18T03:48:40.242Z,23.20
2022-12-18T03:53:03.870Z,20.47
2022-12-18T03:57:22.553Z,25.43
2022-12-18T04:01:41.443Z,22.37
2022-12-18T04:05:56.364Z,20.07
2022-12-18T04:10:10.643Z,18.87
2022-12-18T04:14:26.175Z,17.63
2022-12-18T04:18:41.006Z,18.17
2022-12-18T04:22:53.743Z,16.60
2022-12-18T04:27:06.251Z,18.03
2022-12-18T04:31:24.727Z,19.83
2022-12-18T04:35:36.486Z,19.37
2022-12-18T04:39:48.252Z,17.00
2022-12-18T04:44:06.840Z,20.57
2022-12-18T04:48:18.416Z,17.10
2022-12-18T04:52:32.859Z,19.37
2022-12-18T04:56:44.461Z,19.80
2022-12-18T05:00:56.045Z,16.00
2022-12-18T05:05:08.197Z,15.60
2022-12-18T05:09:19.774Z,16.67
2022-12-18T05:13:32.463Z,16.00
2022-12-18T05:17:43.965Z,15.77
2022-12-18T05:21:55.466Z,17.97
2022-12-18T05:26:08.810Z,14.13
2022-12-18T05:30:20.461Z,15.87
2022-12-18T05:34:32.093Z,18.97
2022-12-18T05:38:43.705Z,16.73
2022-12-18T05:42:55.262Z,19.27
2022-12-18T05:47:07.084Z,15.10
2022-12-18T05:51:21.490Z,17.30
2022-12-18T05:55:37.422Z,12.93
2022-12-18T05:59:49.010Z,16.30
2022-12-18T06:04:00.666Z,13.93
2022-12-18T06:08:13.953Z,16.07
2022-12-18T06:12:25.580Z,15.50
2022-12-18T06:16:37.339Z,16.00
2022-12-18T06:21:00.258Z,13.97
2022-12-18T06:25:11.847Z,19.27
2022-12-18T06:29:23.525Z,18.23
2022-12-18T06:33:35.762Z,17.50
2022-12-18T06:37:47.291Z,17.47
2022-12-18T06:41:59.000Z,13.60
2022-12-18T06:46:29.129Z,16.37
2022-12-18T06:50:43.469Z,16.23
2022-12-18T06:54:55.109Z,14.87
2022-12-18T06:59:06.694Z,14.17
2022-12-18T07:03:18.262Z,15.67
2022-12-18T07:07:29.790Z,14.87
2022-12-18T07:11:41.417Z,13.57
2022-12-18T07:15:52.948Z,14.97
2022-12-18T07:20:05.007Z,14.83
2022-12-18T07:24:16.602Z,16.63
2022-12-18T07:28:28.252Z,13.73
2022-12-18T07:32:39.756Z,11.87
2022-12-18T07:36:51.276Z,14.90
2022-12-18T07:41:03.964Z,13.97
2022-12-18T07:45:18.273Z,17.13
2022-12-18T07:49:29.802Z,14.93
2022-12-18T07:53:41.872Z,12.60
2022-12-18T07:57:59.207Z,15.30
2022-12-18T08:02:12.691Z,12.57
2022-12-18T08:06:24.841Z,14.13
2022-12-18T08:10:36.609Z,14.23
2022-12-18T08:14:48.090Z,12.27
2022-12-18T08:18:59.614Z,12.83
2022-12-18T08:23:11.102Z,12.97
2022-12-18T08:27:30.294Z,14.60
2022-12-18T08:31:42.140Z,10.97
2022-12-18T08:35:54.113Z,11.23
2022-12-18T08:40:06.391Z,12.40
2022-12-18T08:44:36.656Z,10.50
2022-12-18T08:48:48.927Z,9.93
2022-12-18T08:53:01.131Z,10.10
2022-12-18T08:57:12.671Z,9.37
2022-12-18T09:01:25.006Z,13.00
2022-12-18T09:05:37.191Z,11.73
2022-12-18T09:09:48.893Z,11.73
2022-12-18T09:14:01.938Z,10.10
2022-12-18T09:18:14.807Z,8.83
2022-12-18T09:22:26.373Z,10.13
2022-12-18T09:26:38.156Z,11.13
2022-12-18T09:30:51.108Z,9.87
2022-12-18T09:35:02.815Z,8.07
2022-12-18T09:39:14.760Z,8.80
2022-12-18T09:43:42.183Z,8.00
2022-12-18T09:47:56.509Z,10.30
2022-12-18T09:52:29.761Z,8.47
2022-12-18T09:56:43.937Z,8.47
2022-12-18T10:00:56.690Z,10.00
2022-12-18T10:05:13.361Z,10.30
2022-12-18T10:10:12.614Z,8.47
2022-12-18T10:14:48.498Z,9.90
2022-12-18T10:19:18.300Z,7.90
2022-12-18T10:24:00.133Z,9.90
2022-12-18T10:28:14.951Z,8.20
2022-12-18T10:32:29.605Z,10.10
2022-12-18T10:36:41.661Z,11.23
2022-12-18T10:40:53.185Z,8.30
2022-12-18T10:45:11.389Z,8.97
2022-12-18T10:49:32.220Z,9.43
2022-12-18T10:53:44.041Z,7.93
2022-12-18T10:58:22.232Z,8.50
2022-12-18T11:02:39.401Z,9.50
2022-12-18T11:07:01.594Z,9.00
2022-12-18T11:11:23.940Z,8.53
2022-12-18T11:15:35.742Z,8.43
2022-12-18T11:19:54.964Z,10.23
2022-12-18T11:24:20.305Z,8.40
2022-12-18T11:28:43.441Z,8.13
2022-12-18T11:32:59.617Z,12.53
2022-12-18T11:37:14.075Z,13.20
2022-12-18T11:42:10.584Z,11.27
2022-12-18T11:46:44.469Z,10.67
2022-12-18T11:50:58.212Z,14.37
2022-12-18T11:55:50.217Z,9.90
2022-12-18T12:00:18.972Z,8.30
2022-12-18T12:05:01.113Z,11.53
2022-12-18T12:09:39.140Z,11.37
2022-12-18T12:14:12.612Z,12.13
2022-12-18T12:18:53.099Z,8.57
2022-12-18T12:23:12.351Z,11.47
2022-12-18T12:27:43.958Z,10.40
2022-12-18T12:32:17.112Z,11.27
2022-12-18T12:36:58.062Z,14.57
2022-12-18T12:41:51.066Z,11.77
2022-12-18T12:46:11.842Z,10.35
2022-12-18T12:50:24.678Z,10.07
2022-12-18T12:54:37.627Z,8.63
2022-12-18T12:59:39.533Z,11.00
2022-12-18T13:04:00.879Z,10.23
2022-12-18T13:08:27.397Z,10.10
2022-12-18T13:12:58.333Z,12.53
2022-12-18T13:17:22.138Z,11.93
2022-12-18T13:21:35.007Z,9.67
2022-12-18T13:25:47.122Z,9.03
2022-12-18T13:29:59.456Z,11.80
2022-12-18T13:43:49.351Z,11.83
2022-12-18T13:48:01.096Z,8.40
2022-12-18T13:52:22.264Z,12.47
2022-12-18T13:56:35.617Z,12.10
2022-12-18T14:00:47.722Z,9.50
2022-12-18T14:05:00.212Z,8.17
2022-12-18T14:09:20.341Z,12.33
2022-12-18T14:13:38.357Z,14.43
2022-12-18T14:17:52.005Z,9.33
2022-12-18T14:22:04.198Z,12.33
2022-12-18T14:26:24.041Z,12.23
2022-12-18T14:30:44.435Z,11.83
2022-12-18T14:34:56.285Z,8.83
2022-12-18T14:39:18.405Z,10.37
2022-12-18T14:43:34.224Z,10.20
2022-12-18T14:47:46.002Z,11.17
2022-12-18T14:52:07.255Z,9.37
2022-12-18T14:56:26.779Z,15.10
2022-12-18T15:00:45.575Z,13.37
2022-12-18T15:05:11.298Z,12.65
2022-12-18T15:09:26.926Z,13.20
2022-12-18T15:13:39.023Z,12.90
2022-12-18T15:17:58.232Z,13.77
2022-12-18T15:22:21.409Z,13.47
2022-12-18T15:26:38.576Z,10.67
2022-12-18T15:31:22.335Z,13.70
2022-12-18T15:35:33.934Z,13.33
2022-12-18T15:39:45.591Z,15.20
2022-12-18T15:43:57.210Z,11.83
2022-12-18T15:48:29.135Z,13.50
2022-12-18T15:52:45.081Z,12.73
2022-12-18T15:57:15.225Z,16.50
2022-12-18T16:01:30.149Z,11.47
2022-12-18T16:05:41.972Z,18.93
2022-12-18T16:09:53.772Z,17.07
2022-12-18T16:14:22.441Z,17.50
2022-12-18T16:18:33.994Z,14.13
2022-12-18T16:22:47.071Z,14.30
2022-12-18T16:27:00.685Z,13.53
2022-12-18T16:31:12.340Z,16.70
2022-12-18T16:35:25.124Z,14.17
2022-12-18T16:39:38.074Z,16.13
2022-12-18T16:43:54.690Z,16.70
2022-12-18T16:48:06.776Z,15.40
2022-12-18T16:52:18.913Z,18.73
2022-12-18T16:56:32.259Z,14.67
2022-12-18T17:00:43.808Z,19.10
2022-12-18T17:04:57.253Z,20.80
2022-12-18T17:09:24.686Z,17.30
2022-12-18T17:13:36.513Z,15.53
2022-12-18T17:17:48.154Z,19.33
2022-12-18T17:22:00.082Z,30.63
2022-12-18T17:26:13.008Z,24.40
2022-12-18T17:30:24.593Z,30.63
2022-12-18T17:34:37.029Z,19.67
2022-12-18T17:38:53.717Z,19.60
2022-12-18T17:43:05.342Z,21.50
2022-12-18T17:47:17.044Z,24.03
2022-12-18T17:51:30.217Z,20.83
2022-12-18T17:55:41.859Z,16.80
2022-12-18T17:59:53.472Z,20.20
2022-12-18T18:04:05.624Z,18.50
2022-12-18T18:08:17.344Z,17.57
2022-12-18T18:12:47.564Z,18.37
2022-12-18T18:17:04.323Z,24.30
2022-12-18T18:21:16.731Z,18.07
2022-12-18T18:25:28.628Z,17.23
2022-12-18T18:29:40.421Z,21.13
2022-12-18T18:33:52.315Z,22.20
2022-12-18T18:38:04.480Z,15.03
2022-12-18T18:42:16.141Z,19.53
2022-12-18T18:46:27.785Z,21.67
2022-12-18T18:50:39.407Z,18.77
2022-12-18T18:55:11.599Z,21.10
2022-12-18T18:59:31.163Z,18.20
2022-12-18T19:03:44.514Z,18.77
2022-12-18T19:07:56.266Z,23.90
2022-12-18T19:12:26.708Z,21.67
2022-12-18T19:16:38.877Z,24.03
2022-12-18T19:20:59.901Z,19.17
2022-12-18T19:25:11.488Z,16.77
2022-12-18T19:29:23.288Z,19.40
2022-12-18T19:33:43.682Z,16.73
2022-12-18T19:38:10.858Z,18.70
2022-12-18T19:42:28.064Z,16.33
2022-12-18T19:46:46.092Z,25.33
2022-12-18T19:50:57.781Z,23.67
2022-12-18T19:55:09.700Z,17.83
2022-12-18T19:59:27.255Z,20.23
2022-12-18T20:03:40.415Z,18.77
2022-12-18T20:07:59.001Z,20.60
2022-12-18T20:12:26.229Z,17.53
2022-12-18T20:16:41.483Z,20.17
2022-12-18T20:20:53.613Z,19.70
2022-12-18T20:25:08.323Z,21.13
2022-12-18T20:29:19.909Z,19.70
2022-12-18T20:33:31.503Z,24.10
2022-12-18T20:37:49.863Z,19.47
2022-12-18T20:42:03.764Z,23.77
2022-12-18T20:46:16.966Z,24.57
2022-12-18T20:51:09.529Z,22.57
2022-12-18T20:55:49.099Z,33.23
2022-12-18T21:00:18.865Z,32.97
2022-12-18T21:04:40.694Z,30.23
2022-12-18T21:08:54.153Z,30.87
2022-12-18T21:13:15.266Z,23.43
2022-12-18T21:17:44.728Z,32.13
2022-12-18T21:22:08.693Z,24.27
2022-12-18T21:26:34.005Z,24.67
2022-12-18T21:30:50.281Z,21.20
2022-12-18T21:35:13.040Z,26.23
2022-12-18T21:39:30.025Z,26.37
2022-12-18T21:44:03.771Z,21.73
2022-12-18T21:48:30.417Z,26.57
2022-12-18T21:52:48.492Z,24.30
2022-12-18T21:57:25.569Z,22.50
2022-12-18T22:01:46.541Z,31.57
2022-12-18T22:06:09.805Z,22.03
2022-12-18T22:10:31.983Z,25.50
2022-12-18T22:15:03.480Z,23.27
2022-12-18T22:24:07.304Z,35.47
2022-12-18T22:28:53.731Z,26.87
2022-12-18T22:33:11.263Z,44.23
2022-12-18T22:37:35.172Z,34.13
2022-12-18T22:41:55.661Z,35.13
2022-12-18T22:46:25.216Z,30.17
2022-12-18T22:50:40.531Z,27.53
2022-12-18T22:54:55.648Z,31.80
2022-12-18T22:59:20.951Z,30.63
2022-12-18T23:03:45.085Z,31.93
2022-12-18T23:08:01.659Z,33.97
2022-12-18T23:12:28.914Z,28.17
2022-12-18T23:16:49.637Z,33.83
2022-12-18T23:21:15.230Z,27.87
2022-12-18T23:25:38.840Z,29.80
2022-12-18T23:29:54.998Z,30.37
2022-12-18T23:34:13.961Z,28.93
2022-12-18T23:38:39.481Z,27.60
2022-12-18T23:47:38.681Z,30.70
2022-12-18T23:51:55.300Z,32.10
2022-12-18T23:56:12.807Z,36.00
